createdAt,value
2019-03-30T00:01:01.654Z,4.67
2019-03-30T00:06:05.181Z,4.90
2019-03-30T00:11:08.458Z,4.67
2019-03-30T00:16:12.049Z,4.17
2019-03-30T00:21:16.537Z,4.40
2019-03-30T00:26:19.814Z,4.30
2019-03-30T00:31:23.349Z,4.30
2019-03-30T00:36:26.877Z,4.40
2019-03-30T00:41:30.915Z,4.13
2019-03-30T00:46:34.527Z,4.13
2019-03-30T00:51:38.553Z,4.57
2019-03-30T00:56:42.074Z,3.60
2019-03-30T01:01:45.599Z,4.43
2019-03-30T01:06:49.066Z,3.93
2019-03-30T01:11:52.588Z,4.77
2019-03-30T01:16:56.135Z,4.67
2019-03-30T01:21:59.419Z,4.77
2019-03-30T01:27:02.922Z,4.23
2019-03-30T01:32:06.210Z,5.03
2019-03-30T01:37:09.740Z,4.80
2019-03-30T01:42:13.350Z,4.70
2019-03-30T01:47:16.630Z,5.20
2019-03-30T01:52:20.250Z,5.07
2019-03-30T01:57:23.780Z,4.63
2019-03-30T02:02:27.320Z,5.17
2019-03-30T02:07:30.600Z,4.77
2019-03-30T02:12:33.881Z,5.13
2019-03-30T02:17:37.410Z,5.40
2019-03-30T02:22:40.942Z,5.10
2019-03-30T02:27:44.466Z,5.33
2019-03-30T02:32:47.989Z,5.37
2019-03-30T02:37:51.506Z,5.57
2019-03-30T02:42:55.613Z,5.40
2019-03-30T02:47:59.638Z,5.93
2019-03-30T02:53:03.169Z,5.77
2019-03-30T02:58:06.785Z,5.50
2019-03-30T03:03:10.317Z,5.87
2019-03-30T03:08:14.334Z,6.27
2019-03-30T03:13:17.605Z,6.27
2019-03-30T03:18:20.889Z,6.50
2019-03-30T03:23:24.418Z,6.10
2019-03-30T03:28:27.996Z,5.80
2019-03-30T03:33:31.279Z,5.90
2019-03-30T03:38:34.801Z,6.07
2019-03-30T03:43:38.096Z,6.10
2019-03-30T03:48:41.394Z,6.60
2019-03-30T03:53:44.985Z,5.87
2019-03-30T03:58:48.530Z,6.00
2019-03-30T04:03:53.825Z,6.30
2019-03-30T04:08:58.926Z,6.50
2019-03-30T04:14:02.362Z,5.87
2019-03-30T04:19:05.888Z,6.20
2019-03-30T04:24:09.417Z,6.30
2019-03-30T04:29:12.787Z,6.70
2019-03-30T04:34:16.317Z,6.53
2019-03-30T04:39:19.631Z,6.00
2019-03-30T04:44:23.176Z,6.43
2019-03-30T04:49:26.697Z,6.93
2019-03-30T04:54:30.249Z,6.87
2019-03-30T04:59:33.531Z,6.57
2019-03-30T05:04:37.092Z,6.27
2019-03-30T05:09:41.077Z,6.60
2019-03-30T05:14:44.613Z,7.10
2019-03-30T05:19:48.153Z,8.10
2019-03-30T05:24:51.452Z,7.50
2019-03-30T05:29:54.732Z,7.67
2019-03-30T05:34:58.262Z,7.67
2019-03-30T05:40:01.830Z,7.70
2019-03-30T05:45:07.452Z,7.10
2019-03-30T05:50:10.795Z,6.47
2019-03-30T05:55:14.109Z,6.80
2019-03-30T06:00:19.353Z,7.00
2019-03-30T06:05:22.891Z,6.57
2019-03-30T06:10:26.208Z,6.67
2019-03-30T06:15:30.290Z,6.50
2019-03-30T06:20:33.810Z,6.60
2019-03-30T06:25:37.199Z,7.30
2019-03-30T06:30:40.755Z,8.50
2019-03-30T06:35:44.289Z,8.43
2019-03-30T06:40:47.640Z,6.70
2019-03-30T06:45:50.917Z,6.97
2019-03-30T06:50:54.265Z,7.97
2019-03-30T06:55:57.787Z,6.93
2019-03-30T07:01:01.495Z,7.53
2019-03-30T07:06:04.799Z,6.93
2019-03-30T07:11:20.676Z,7.10
2019-03-30T07:16:13.632Z,6.53
2019-03-30T07:21:16.917Z,6.57
2019-03-30T07:26:21.313Z,6.93
2019-03-30T07:31:24.852Z,6.33
2019-03-30T07:36:28.919Z,6.47
2019-03-30T07:41:32.442Z,7.40
2019-03-30T07:46:36.029Z,6.93
2019-03-30T07:51:39.569Z,6.60
2019-03-30T07:56:43.109Z,7.23
2019-03-30T08:01:46.626Z,6.30
2019-03-30T08:06:50.189Z,6.67
2019-03-30T08:11:53.712Z,8.27
2019-03-30T08:16:57.353Z,6.93
2019-03-30T08:22:00.638Z,6.73
2019-03-30T08:27:04.169Z,7.30
2019-03-30T08:32:07.712Z,6.47
2019-03-30T08:37:11.243Z,6.97
2019-03-30T08:42:14.863Z,6.67
2019-03-30T08:47:18.393Z,7.00
2019-03-30T08:52:21.936Z,7.20
2019-03-30T08:57:26.012Z,7.47
2019-03-30T09:02:29.620Z,8.00
2019-03-30T09:07:32.916Z,7.60
2019-03-30T09:12:36.440Z,6.97
2019-03-30T09:17:39.731Z,6.77
2019-03-30T09:22:46.259Z,6.83
2019-03-30T09:27:49.580Z,7.13
2019-03-30T09:32:52.869Z,6.70
2019-03-30T09:37:56.447Z,5.17
2019-03-30T09:42:59.753Z,5.67
2019-03-30T09:48:05.957Z,4.80
2019-03-30T09:53:09.323Z,5.03
2019-03-30T09:58:12.669Z,5.63
2019-03-30T10:03:16.200Z,4.70
2019-03-30T10:08:19.498Z,4.63
2019-03-30T10:13:23.047Z,4.80
2019-03-30T10:18:26.579Z,5.17
2019-03-30T10:23:37.812Z,4.63
2019-03-30T10:28:41.096Z,5.70
2019-03-30T10:33:44.383Z,7.23
2019-03-30T10:38:49.294Z,7.20
2019-03-30T10:44:02.092Z,6.43
2019-03-30T10:49:01.735Z,8.30
2019-03-30T10:54:06.794Z,8.13
2019-03-30T10:59:11.628Z,8.07
2019-03-30T11:04:15.168Z,8.30
2019-03-30T11:09:32.787Z,6.90
2019-03-30T11:14:33.554Z,7.73
2019-03-30T11:19:38.624Z,8.90
2019-03-30T11:24:41.907Z,9.40
2019-03-30T11:29:45.202Z,7.73
2019-03-30T11:34:48.490Z,8.50
2019-03-30T11:39:59.459Z,8.10
2019-03-30T11:45:06.167Z,6.80
2019-03-30T11:50:09.433Z,7.23
2019-03-30T11:55:21.995Z,7.07
2019-03-30T12:00:28.377Z,6.57
2019-03-30T12:10:58.367Z,6.87
2019-03-30T12:16:16.810Z,6.20
2019-03-30T12:21:45.308Z,7.50
2019-03-30T12:26:58.053Z,5.87
2019-03-30T12:32:06.902Z,6.23
2019-03-30T12:37:10.437Z,6.87
2019-03-30T12:42:13.969Z,6.80
2019-03-30T12:47:17.253Z,6.30
2019-03-30T12:52:20.771Z,6.53
2019-03-30T12:57:24.069Z,6.53
2019-03-30T13:02:27.354Z,6.67
2019-03-30T13:07:30.874Z,5.77
2019-03-30T13:12:34.404Z,5.80
2019-03-30T13:17:38.006Z,6.20
2019-03-30T13:22:41.544Z,5.77
2019-03-30T13:27:45.066Z,5.80
2019-03-30T13:32:53.211Z,5.70
2019-03-30T13:37:55.244Z,5.57
2019-03-30T13:42:58.519Z,5.73
2019-03-30T13:48:02.060Z,5.50
2019-03-30T13:53:06.096Z,5.70
2019-03-30T13:58:09.377Z,6.30
2019-03-30T14:03:12.937Z,5.60
2019-03-30T14:08:16.217Z,5.40
2019-03-30T14:13:19.505Z,6.37
2019-03-30T14:18:22.787Z,5.53
2019-03-30T14:23:26.338Z,5.97
2019-03-30T14:28:29.645Z,5.67
2019-03-30T14:33:32.929Z,5.27
2019-03-30T14:38:36.548Z,6.67
2019-03-30T14:43:40.106Z,6.33
2019-03-30T14:48:43.422Z,6.80
2019-03-30T14:53:46.972Z,6.60
2019-03-30T14:58:50.647Z,6.63
2019-03-30T15:03:53.964Z,6.00
2019-03-30T15:08:57.638Z,6.83
2019-03-30T15:14:01.368Z,6.10
2019-03-30T15:19:04.860Z,6.80
2019-03-30T15:24:08.429Z,7.20
2019-03-30T15:29:11.728Z,6.93
2019-03-30T15:34:15.228Z,7.13
2019-03-30T15:39:18.800Z,7.33
2019-03-30T15:44:22.373Z,7.17
2019-03-30T15:49:25.670Z,7.73
2019-03-30T15:54:29.230Z,8.73
2019-03-30T15:59:32.550Z,7.67
2019-03-30T16:04:36.084Z,7.77
2019-03-30T16:09:39.622Z,9.37
2019-03-30T16:14:42.993Z,8.27
2019-03-30T16:19:46.366Z,8.83
2019-03-30T16:24:50.011Z,7.90
2019-03-30T16:29:53.378Z,8.10
2019-03-30T16:34:57.019Z,8.67
2019-03-30T16:40:00.362Z,7.07
2019-03-30T16:45:04.863Z,9.53
2019-03-30T16:50:08.898Z,7.57
2019-03-30T16:55:12.346Z,9.50
2019-03-30T17:00:15.775Z,9.37
2019-03-30T17:05:19.090Z,8.57
2019-03-30T17:10:24.236Z,10.67
2019-03-30T17:15:27.765Z,10.30
2019-03-30T17:20:32.148Z,9.23
2019-03-30T17:25:35.465Z,8.20
2019-03-30T17:30:38.978Z,9.57
2019-03-30T17:35:42.262Z,9.77
2019-03-30T17:40:45.836Z,9.03
2019-03-30T17:45:49.363Z,9.90
2019-03-30T17:50:52.660Z,8.77
2019-03-30T17:55:56.175Z,8.70
2019-03-30T18:01:00.501Z,8.43
2019-03-30T18:06:04.071Z,8.27
2019-03-30T18:11:07.513Z,7.77
2019-03-30T18:16:11.527Z,7.80
2019-03-30T18:21:15.058Z,7.27
2019-03-30T18:26:18.647Z,7.47
2019-03-30T18:31:23.195Z,7.67
2019-03-30T18:36:27.616Z,7.50
2019-03-30T18:41:30.893Z,9.47
2019-03-30T18:46:35.766Z,11.30
2019-03-30T18:51:40.784Z,11.03
2019-03-30T18:56:44.404Z,12.60
2019-03-30T19:01:47.697Z,16.13
2019-03-30T19:06:50.996Z,16.17
2019-03-30T19:11:54.283Z,15.73
2019-03-30T19:16:57.828Z,20.30
2019-03-30T19:22:01.119Z,23.40
2019-03-30T19:27:04.672Z,24.50
2019-03-30T19:32:07.951Z,27.53
2019-03-30T19:37:11.241Z,23.00
2019-03-30T19:42:15.949Z,22.37
2019-03-30T19:47:19.632Z,24.20
2019-03-30T19:52:23.158Z,22.80
2019-03-30T19:57:27.849Z,22.33
2019-03-30T20:02:31.232Z,20.43
2019-03-30T20:07:34.898Z,20.60
2019-03-30T20:12:38.481Z,19.53
2019-03-30T20:17:42.011Z,19.63
2019-03-30T20:22:45.631Z,16.83
2019-03-30T20:27:49.158Z,17.20
2019-03-30T20:32:52.712Z,15.30
2019-03-30T20:37:56.261Z,15.73
2019-03-30T20:42:59.555Z,15.67
2019-03-30T20:48:03.666Z,15.27
2019-03-30T20:53:06.963Z,16.30
2019-03-30T20:58:10.249Z,15.37
2019-03-30T21:03:13.538Z,14.23
2019-03-30T21:08:16.914Z,13.90
2019-03-30T21:13:20.426Z,13.30
2019-03-30T21:18:23.958Z,12.33
2019-03-30T21:23:27.516Z,14.50
2019-03-30T21:28:31.035Z,13.93
2019-03-30T21:33:34.575Z,15.70
2019-03-30T21:38:38.119Z,17.17
2019-03-30T21:43:41.406Z,13.30
2019-03-30T21:48:44.774Z,17.53
2019-03-30T21:53:48.093Z,15.27
2019-03-30T21:58:51.623Z,16.67
2019-03-30T22:03:54.911Z,18.73
2019-03-30T22:08:58.505Z,17.40
2019-03-30T22:14:01.799Z,18.57
2019-03-30T22:19:05.332Z,15.67
2019-03-30T22:24:08.693Z,16.53
2019-03-30T22:29:11.968Z,17.17
2019-03-30T22:34:17.106Z,17.80
2019-03-30T22:39:20.390Z,17.63
2019-03-30T22:44:23.675Z,17.07
2019-03-30T22:49:27.207Z,18.17
2019-03-30T22:54:30.741Z,17.50
2019-03-30T22:59:34.277Z,17.93
2019-03-30T23:04:37.815Z,16.83
2019-03-30T23:09:41.112Z,18.00
2019-03-30T23:14:44.648Z,17.80
2019-03-30T23:19:48.191Z,17.50
2019-03-30T23:24:51.491Z,15.10
2019-03-30T23:29:55.033Z,15.73
2019-03-30T23:34:58.326Z,15.20
2019-03-30T23:40:01.648Z,15.63
2019-03-30T23:45:05.756Z,14.77
2019-03-30T23:50:09.189Z,15.30
2019-03-30T23:55:12.653Z,14.33
